Time;durP1;ratioP1;P1;durP2;ratioP2;P2;SDS_P1;SDS_P2;PMS_P1;PMS_P2;Temp;Humidity;BMP_temperature;BMP_pressure;BME280_temperature;BME280_humidity;BME280_pressure;Samples;Min_cycle;Max_cycle;Signal;HPM_P1;HPM_P2
2021/12/19 00:10:06;;;;;;;;;36.75;29.25;;;;;;;;4973229;28;45504;-82
2021/12/19 00:12:31;;;;;;;;;39.50;30.00;;;;;;;;4973390;28;45403;-82
2021/12/19 00:14:56;;;;;;;;;35.33;31.00;;;;;;;;4975943;28;45559;-81
2021/12/19 00:17:21;;;;;;;;;33.67;26.67;;;;;;;;4982138;28;48390;-82
2021/12/19 00:19:47;;;;;;;;;36.00;29.67;;;;;;;;4976671;28;45723;-82
2021/12/19 00:22:13;;;;;;;;;32.67;28.67;;;;;;;;4971557;28;45514;-79
2021/12/19 00:24:38;;;;;;;;;36.25;30.50;;;;;;;;4969519;28;45515;-82
2021/12/19 00:27:03;;;;;;;;;32.67;27.00;;;;;;;;4975926;28;45517;-82
2021/12/19 00:29:28;;;;;;;;;44.67;32.67;;;;;;;;4976150;28;46751;-82
2021/12/19 00:31:54;;;;;;;;;32.75;27.75;;;;;;;;5003389;28;45442;-82
2021/12/19 00:34:19;;;;;;;;;35.75;28.00;;;;;;;;4971895;28;45503;-82
2021/12/19 00:36:44;;;;;;;;;33.00;26.33;;;;;;;;4969752;28;45614;-82
2021/12/19 00:39:10;;;;;;;;;30.00;26.00;;;;;;;;4974686;28;45510;-82
2021/12/19 00:41:36;;;;;;;;;30.00;26.25;;;;;;;;4967449;28;45726;-82
2021/12/19 00:44:09;;;;;;;;;30.67;23.33;;;;;;;;4971479;28;45682;-82
2021/12/19 00:46:43;;;;;;;;;33.00;27.50;;;;;;;;4974558;28;45848;-82
2021/12/19 00:49:08;;;;;;;;;39.00;25.50;;;;;;;;4969612;28;46838;-83
2021/12/19 00:51:34;;;;;;;;;31.75;24.25;;;;;;;;4976816;28;45549;-82
2021/12/19 00:53:59;;;;;;;;;39.67;27.33;;;;;;;;4966139;28;45587;-83
2021/12/19 00:56:25;;;;;;;;;34.00;25.33;;;;;;;;4973418;28;45505;-82
2021/12/19 00:58:50;;;;;;;;;36.25;25.75;;;;;;;;4973404;28;45842;-82
2021/12/19 01:01:16;;;;;;;;;32.75;26.00;;;;;;;;4970403;28;45368;-82
2021/12/19 01:03:44;;;;;;;;;35.25;30.25;;;;;;;;4973535;28;45421;-81
2021/12/19 01:06:09;;;;;;;;;43.00;31.75;;;;;;;;4968631;28;45653;-82
2021/12/19 01:08:34;;;;;;;;;34.75;26.00;;;;;;;;4974726;28;45575;-82
2021/12/19 01:11:00;;;;;;;;;36.33;26.67;;;;;;;;4974270;28;45893;-82
2021/12/19 01:13:25;;;;;;;;;31.00;26.50;;;;;;;;4971291;28;45413;-81
2021/12/19 01:15:51;;;;;;;;;32.33;26.33;;;;;;;;4973534;28;45531;-81
2021/12/19 01:18:17;;;;;;;;;42.00;26.25;;;;;;;;4965391;28;45609;-81
2021/12/19 01:20:42;;;;;;;;;32.75;26.75;;;;;;;;4975207;28;45505;-81
2021/12/19 01:23:08;;;;;;;;;42.25;27.25;;;;;;;;4973702;28;45365;-81
2021/12/19 01:25:34;;;;;;;;;25.50;22.75;;;;;;;;4973009;28;45475;-81
2021/12/19 01:27:59;;;;;;;;;30.25;24.00;;;;;;;;4973207;28;45745;-81
2021/12/19 01:30:25;;;;;;;;;32.00;27.33;;;;;;;;4966393;28;45859;-81
2021/12/19 01:32:50;;;;;;;;;28.50;25.75;;;;;;;;4973843;28;45703;-81
2021/12/19 01:35:17;;;;;;;;;31.00;25.75;;;;;;;;4974803;28;45733;-81
2021/12/19 01:37:42;;;;;;;;;34.00;26.50;;;;;;;;4973022;28;45529;-81
2021/12/19 01:40:09;;;;;;;;;26.00;21.25;;;;;;;;4971609;28;45512;-81
2021/12/19 01:42:36;;;;;;;;;33.50;28.75;;;;;;;;4965562;28;45475;-82
2021/12/19 01:45:01;;;;;;;;;34.50;23.25;;;;;;;;4970707;28;45400;-81
2021/12/19 01:47:27;;;;;;;;;28.75;26.00;;;;;;;;4974050;28;48261;-81
2021/12/19 01:49:52;;;;;;;;;35.50;23.50;;;;;;;;4972597;28;45428;-81
2021/12/19 01:52:18;;;;;;;;;26.50;21.00;;;;;;;;4971934;28;45700;-81
2021/12/19 01:54:45;;;;;;;;;31.50;22.75;;;;;;;;4966195;28;45536;-81
2021/12/19 01:57:10;;;;;;;;;24.75;23.25;;;;;;;;4967598;28;46597;-81
2021/12/19 01:59:35;;;;;;;;;27.75;18.00;;;;;;;;4970930;28;45830;-81
2021/12/19 02:02:00;;;;;;;;;23.33;22.00;;;;;;;;4974000;28;45446;-81
2021/12/19 02:04:30;;;;;;;;;26.00;22.67;;;;;;;;4975417;28;45522;-81
2021/12/19 02:06:55;;;;;;;;;29.00;21.00;;;;;;;;4966632;28;46489;-82
2021/12/19 02:09:20;;;;;;;;;33.00;22.00;;;;;;;;4974934;28;45565;-81
2021/12/19 02:11:45;;;;;;;;;30.67;19.67;;;;;;;;4967167;28;45901;-81
2021/12/19 02:14:11;;;;;;;;;25.00;17.67;;;;;;;;4975473;28;45408;-81
2021/12/19 02:16:37;;;;;;;;;28.75;23.25;;;;;;;;4969981;28;46121;-81
2021/12/19 02:19:03;;;;;;;;;23.25;19.75;;;;;;;;4967394;28;45461;-81
2021/12/19 02:21:28;;;;;;;;;30.50;21.50;;;;;;;;4976451;28;45769;-82
2021/12/19 02:23:57;;;;;;;;;30.00;18.67;;;;;;;;4971928;28;47635;-81
2021/12/19 02:26:23;;;;;;;;;30.00;23.25;;;;;;;;4973115;28;48726;-81
2021/12/19 02:28:48;;;;;;;;;28.75;22.25;;;;;;;;4974183;28;45558;-81
2021/12/19 02:31:13;;;;;;;;;30.00;22.67;;;;;;;;4968622;28;45528;-81
2021/12/19 02:33:42;;;;;;;;;31.00;23.33;;;;;;;;4973139;28;45535;-81
2021/12/19 02:49:36;;;;;;;;;27.00;19.75;;;;;;;;5035393;28;45515;-81
2021/12/19 02:52:09;;;;;;;;;24.25;16.50;;;;;;;;5035110;28;45548;-81
2021/12/19 02:54:35;;;;;;;;;25.50;19.25;;;;;;;;5029153;28;45515;-81
2021/12/19 02:57:01;;;;;;;;;23.75;18.25;;;;;;;;5036634;28;46611;-81
2021/12/19 02:59:26;;;;;;;;;22.33;17.00;;;;;;;;5033591;28;45475;-81
2021/12/19 03:01:51;;;;;;;;;29.33;21.67;;;;;;;;5019827;28;45502;-81
2021/12/19 03:04:16;;;;;;;;;22.67;19.67;;;;;;;;5033712;28;45653;-81
2021/12/19 03:06:42;;;;;;;;;26.00;23.00;;;;;;;;5029902;28;46437;-81
2021/12/19 03:09:09;;;;;;;;;25.25;18.00;;;;;;;;5038016;28;46445;-81
2021/12/19 03:19:33;;;;;;;;;29.00;22.00;;;;;;;;4978271;28;46491;-81
2021/12/19 03:21:59;;;;;;;;;23.67;21.00;;;;;;;;4971500;28;45606;-81
2021/12/19 03:24:24;;;;;;;;;24.67;22.67;;;;;;;;4967999;28;45565;-81
2021/12/19 03:26:49;;;;;;;;;33.67;24.67;;;;;;;;4973460;28;46210;-81
2021/12/19 03:29:14;;;;;;;;;26.00;20.67;;;;;;;;4977081;28;45357;-81
2021/12/19 03:31:40;;;;;;;;;23.75;19.00;;;;;;;;4974568;28;45388;-81
2021/12/19 03:34:05;;;;;;;;;19.75;19.00;;;;;;;;4969977;28;45397;-81
2021/12/19 03:36:31;;;;;;;;;25.33;19.33;;;;;;;;4967173;28;46482;-81
2021/12/19 03:38:58;;;;;;;;;24.75;18.00;;;;;;;;4973529;28;45461;-81
2021/12/19 03:41:33;;;;;;;;;23.50;18.75;;;;;;;;4975876;28;45656;-81
2021/12/19 03:43:58;;;;;;;;;20.50;18.25;;;;;;;;4976334;28;45548;-81
2021/12/19 03:46:23;;;;;;;;;36.25;24.25;;;;;;;;4974162;28;45469;-81
2021/12/19 03:48:49;;;;;;;;;29.33;24.00;;;;;;;;4971089;28;45496;-82
2021/12/19 03:51:14;;;;;;;;;27.00;22.00;;;;;;;;4977319;28;45470;-81
2021/12/19 03:53:39;;;;;;;;;25.00;20.75;;;;;;;;4972112;28;45534;-81
2021/12/19 03:56:05;;;;;;;;;27.33;19.33;;;;;;;;4976010;28;45508;-81
2021/12/19 03:58:30;;;;;;;;;26.50;20.50;;;;;;;;4971433;28;45462;-80
2021/12/19 04:01:00;;;;;;;;;18.25;16.00;;;;;;;;4976249;28;45584;-82
2021/12/19 04:03:25;;;;;;;;;23.25;18.75;;;;;;;;5005819;27;45352;-80
2021/12/19 04:05:51;;;;;;;;;21.75;17.00;;;;;;;;4967226;28;45376;-80
2021/12/19 04:08:17;;;;;;;;;26.50;18.25;;;;;;;;4977225;28;45434;-80
2021/12/19 04:10:42;;;;;;;;;22.25;16.50;;;;;;;;4972792;28;45469;-81
2021/12/19 04:13:08;;;;;;;;;14.00;13.50;;;;;;;;4969419;28;45454;-80
2021/12/19 04:15:34;;;;;;;;;22.75;18.00;;;;;;;;4976072;28;45706;-80
2021/12/19 04:17:59;;;;;;;;;20.00;14.25;;;;;;;;4969390;28;45611;-80
2021/12/19 04:20:24;;;;;;;;;19.00;15.00;;;;;;;;4974390;28;45520;-80
2021/12/19 04:22:51;;;;;;;;;24.50;14.50;;;;;;;;4974408;28;45597;-80
2021/12/19 04:25:16;;;;;;;;;16.75;15.00;;;;;;;;4970528;28;46703;-80
2021/12/19 04:27:42;;;;;;;;;13.25;12.00;;;;;;;;4976222;28;45512;-80
2021/12/19 04:30:09;;;;;;;;;16.25;12.75;;;;;;;;4966156;28;45561;-80
2021/12/19 04:32:39;;;;;;;;;19.75;16.50;;;;;;;;4973987;28;45847;-80
2021/12/19 04:35:05;;;;;;;;;16.75;15.25;;;;;;;;4978343;28;45500;-81
2021/12/19 04:40:06;;;;;;;;;17.67;14.00;;;;;;;;4972810;28;45512;-81
2021/12/19 04:51:11;;;;;;;;;21.00;16.75;;;;;;;;4975436;28;45652;-81
2021/12/19 05:05:05;;;;;;;;;20.75;15.50;;;;;;;;4972772;28;45828;-80
2021/12/19 05:15:36;;;;;;;;;19.75;14.00;;;;;;;;4974587;28;45657;-81
2021/12/19 05:18:08;;;;;;;;;15.00;11.50;;;;;;;;4970622;28;47432;-81
2021/12/19 05:20:36;;;;;;;;;14.50;12.75;;;;;;;;4973951;28;46071;-81
2021/12/19 05:23:18;;;;;;;;;17.00;13.50;;;;;;;;4974895;28;45425;-81
2021/12/19 05:25:43;;;;;;;;;14.25;11.50;;;;;;;;4973934;28;45445;-81
2021/12/19 05:28:08;;;;;;;;;14.67;9.33;;;;;;;;4970599;28;45702;-81
2021/12/19 05:30:34;;;;;;;;;14.00;10.33;;;;;;;;4964817;28;45758;-81
2021/12/19 05:33:01;;;;;;;;;14.67;11.00;;;;;;;;4972721;28;45397;-81
2021/12/19 05:35:58;;;;;;;;;18.75;13.75;;;;;;;;4973899;28;45564;-81
2021/12/19 05:46:32;;;;;;;;;17.75;12.75;;;;;;;;4973092;28;45325;-81
2021/12/19 05:48:57;;;;;;;;;14.25;12.50;;;;;;;;4966694;28;46419;-81
2021/12/19 05:51:22;;;;;;;;;14.33;11.67;;;;;;;;4975413;28;45615;-81
2021/12/19 05:53:47;;;;;;;;;15.00;13.00;;;;;;;;4967958;28;45500;-81
2021/12/19 05:56:13;;;;;;;;;13.67;12.33;;;;;;;;4975370;28;45624;-81
2021/12/19 05:58:38;;;;;;;;;20.00;12.33;;;;;;;;4973630;28;46448;-81
2021/12/19 06:01:05;;;;;;;;;14.25;13.75;;;;;;;;4967832;28;45439;-81
2021/12/19 06:03:31;;;;;;;;;20.25;12.50;;;;;;;;4972894;28;45484;-82
2021/12/19 06:05:56;;;;;;;;;17.33;14.00;;;;;;;;4966633;28;45726;-81
2021/12/19 06:08:21;;;;;;;;;21.67;14.00;;;;;;;;4975224;28;46140;-81
2021/12/19 06:10:46;;;;;;;;;17.33;15.33;;;;;;;;4996260;28;45366;-81
2021/12/19 06:13:11;;;;;;;;;14.33;11.67;;;;;;;;4982308;28;45610;-81
2021/12/19 06:15:37;;;;;;;;;21.67;13.00;;;;;;;;4974185;28;45453;-82
2021/12/19 06:18:03;;;;;;;;;17.33;12.67;;;;;;;;4966921;28;46012;-79
2021/12/19 06:20:28;;;;;;;;;18.75;16.00;;;;;;;;4974393;28;45417;-81
2021/12/19 06:22:53;;;;;;;;;17.25;13.00;;;;;;;;4971447;28;45534;-79
2021/12/19 06:25:19;;;;;;;;;15.25;12.50;;;;;;;;4970572;28;45981;-79
2021/12/19 06:27:44;;;;;;;;;10.33;10.00;;;;;;;;4974277;28;45400;-81
2021/12/19 06:30:10;;;;;;;;;12.00;12.00;;;;;;;;4971693;28;45519;-81
2021/12/19 06:32:35;;;;;;;;;17.25;11.25;;;;;;;;4973506;28;45370;-81
2021/12/19 06:35:06;;;;;;;;;11.75;11.00;;;;;;;;4972358;28;45336;-81
2021/12/19 06:37:35;;;;;;;;;14.00;12.25;;;;;;;;4967354;28;48398;-81
2021/12/19 06:40:00;;;;;;;;;11.50;8.75;;;;;;;;4972065;28;46279;-81
2021/12/19 06:42:26;;;;;;;;;18.33;11.33;;;;;;;;4964657;28;48319;-80
2021/12/19 06:44:51;;;;;;;;;14.67;12.33;;;;;;;;4971373;28;45600;-81
2021/12/19 06:47:16;;;;;;;;;16.33;14.00;;;;;;;;4977290;28;45372;-81
2021/12/19 06:49:41;;;;;;;;;15.67;14.00;;;;;;;;4975403;28;45501;-80
2021/12/19 06:52:06;;;;;;;;;17.33;11.00;;;;;;;;4973642;28;45564;-81
2021/12/19 06:54:32;;;;;;;;;18.00;13.00;;;;;;;;4966210;28;45584;-81
2021/12/19 06:56:57;;;;;;;;;14.00;12.33;;;;;;;;4971485;28;46606;-81
2021/12/19 06:59:22;;;;;;;;;15.33;9.00;;;;;;;;4984467;28;46020;-81
2021/12/19 07:01:47;;;;;;;;;19.67;13.33;;;;;;;;4976376;28;45556;-82
2021/12/19 07:04:13;;;;;;;;;15.00;14.00;;;;;;;;4972717;28;45300;-81
2021/12/19 07:06:38;;;;;;;;;14.00;12.00;;;;;;;;4970749;28;46364;-81
2021/12/19 07:09:03;;;;;;;;;12.67;12.67;;;;;;;;4975235;28;45491;-81
2021/12/19 07:11:28;;;;;;;;;17.50;12.50;;;;;;;;4975146;28;45360;-81
2021/12/19 07:13:54;;;;;;;;;20.67;15.67;;;;;;;;4976854;28;45807;-81
2021/12/19 07:16:19;;;;;;;;;18.33;11.67;;;;;;;;4971809;28;45408;-81
2021/12/19 07:18:44;;;;;;;;;18.67;16.00;;;;;;;;4968184;28;45503;-81
2021/12/19 07:21:10;;;;;;;;;19.50;13.50;;;;;;;;4972105;28;45544;-81
2021/12/19 07:23:35;;;;;;;;;25.25;15.50;;;;;;;;4971011;28;45590;-81
2021/12/19 07:26:01;;;;;;;;;14.00;12.00;;;;;;;;4976830;28;45550;-81
2021/12/19 07:28:27;;;;;;;;;12.75;11.75;;;;;;;;4972979;28;45980;-81
2021/12/19 07:30:52;;;;;;;;;15.50;10.75;;;;;;;;4968301;28;45434;-80
2021/12/19 07:33:18;;;;;;;;;17.75;12.00;;;;;;;;4974299;28;45596;-81
2021/12/19 07:35:47;;;;;;;;;20.25;14.00;;;;;;;;4970905;28;46391;-81
2021/12/19 07:38:18;;;;;;;;;14.00;11.25;;;;;;;;4977890;28;45352;-81
2021/12/19 07:40:46;;;;;;;;;19.25;12.00;;;;;;;;4976504;28;45545;-81
2021/12/19 07:43:12;;;;;;;;;15.25;13.50;;;;;;;;4971068;28;45452;-81
2021/12/19 07:45:38;;;;;;;;;11.75;11.50;;;;;;;;4977913;28;45572;-81
2021/12/19 07:48:04;;;;;;;;;15.00;10.50;;;;;;;;4968895;28;45727;-81
2021/12/19 07:50:30;;;;;;;;;15.50;12.75;;;;;;;;4976777;28;45496;-81
2021/12/19 07:52:56;;;;;;;;;12.25;11.25;;;;;;;;4973869;28;45505;-81
2021/12/19 07:55:23;;;;;;;;;14.00;12.25;;;;;;;;4972453;28;45473;-81
2021/12/19 07:57:48;;;;;;;;;16.00;12.50;;;;;;;;4976082;28;45985;-81
2021/12/19 08:00:15;;;;;;;;;13.75;11.75;;;;;;;;4974275;28;45585;-81
2021/12/19 08:02:41;;;;;;;;;15.00;12.50;;;;;;;;4973070;28;45723;-81
2021/12/19 08:05:07;;;;;;;;;13.00;10.00;;;;;;;;4975133;28;45613;-81
2021/12/19 08:07:32;;;;;;;;;15.00;13.50;;;;;;;;4971874;28;45985;-81
2021/12/19 08:10:03;;;;;;;;;14.50;11.75;;;;;;;;4970752;28;45473;-81
2021/12/19 08:12:28;;;;;;;;;17.25;11.75;;;;;;;;4967598;28;45463;-81
2021/12/19 08:14:54;;;;;;;;;14.00;12.33;;;;;;;;4973025;28;46456;-81
2021/12/19 08:17:21;;;;;;;;;22.50;14.50;;;;;;;;4976533;28;45514;-81
2021/12/19 08:19:46;;;;;;;;;18.75;14.50;;;;;;;;4975140;28;45421;-81
2021/12/19 08:22:14;;;;;;;;;14.00;11.50;;;;;;;;4970191;28;45687;-81
2021/12/19 08:24:39;;;;;;;;;14.00;13.75;;;;;;;;4967469;28;45481;-81
2021/12/19 08:27:04;;;;;;;;;16.67;13.33;;;;;;;;4973958;28;45588;-81
2021/12/19 08:29:30;;;;;;;;;13.33;13.33;;;;;;;;4974227;28;45490;-81
2021/12/19 08:31:55;;;;;;;;;17.25;14.00;;;;;;;;4975386;28;45541;-81
2021/12/19 08:34:20;;;;;;;;;20.00;11.00;;;;;;;;4970881;28;45641;-81
2021/12/19 08:36:45;;;;;;;;;15.00;14.00;;;;;;;;4967539;28;45606;-81
2021/12/19 08:39:12;;;;;;;;;14.33;11.67;;;;;;;;4977005;28;45389;-81
2021/12/19 08:41:37;;;;;;;;;19.00;13.25;;;;;;;;4972252;28;45893;-81
2021/12/19 08:44:03;;;;;;;;;15.00;11.25;;;;;;;;4976040;28;45568;-81
2021/12/19 08:46:31;;;;;;;;;14.00;12.00;;;;;;;;4977041;28;45502;-81
2021/12/19 08:48:57;;;;;;;;;18.75;12.75;;;;;;;;4968142;28;45457;-81
2021/12/19 08:51:23;;;;;;;;;18.33;15.00;;;;;;;;4971277;28;45468;-81
2021/12/19 08:53:48;;;;;;;;;15.50;12.00;;;;;;;;4956521;28;46549;-81
2021/12/19 08:56:13;;;;;;;;;16.00;15.33;;;;;;;;4976916;28;45451;-81
2021/12/19 08:58:38;;;;;;;;;19.67;14.67;;;;;;;;4976009;28;45652;-81
2021/12/19 09:01:04;;;;;;;;;17.75;16.00;;;;;;;;4963422;28;45423;-85
2021/12/19 09:03:30;;;;;;;;;19.00;15.00;;;;;;;;4983521;28;46412;-81
2021/12/19 09:05:56;;;;;;;;;19.00;14.75;;;;;;;;4968180;28;45624;-81
2021/12/19 09:08:21;;;;;;;;;17.00;15.25;;;;;;;;4977259;28;45401;-81
2021/12/19 09:10:46;;;;;;;;;15.00;14.00;;;;;;;;4971660;28;45641;-81
2021/12/19 09:13:11;;;;;;;;;17.00;14.33;;;;;;;;4968537;28;45536;-81
2021/12/19 09:15:37;;;;;;;;;21.67;16.67;;;;;;;;4977878;28;45688;-81
2021/12/19 09:18:02;;;;;;;;;19.00;14.33;;;;;;;;4967137;28;45439;-81
2021/12/19 09:20:27;;;;;;;;;20.75;14.75;;;;;;;;4968463;28;45637;-80
2021/12/19 09:22:53;;;;;;;;;22.00;18.67;;;;;;;;4976317;28;45492;-81
2021/12/19 09:25:19;;;;;;;;;19.00;14.50;;;;;;;;4970935;28;45534;-81
2021/12/19 09:27:44;;;;;;;;;20.25;16.25;;;;;;;;4973010;28;45647;-82
2021/12/19 09:30:10;;;;;;;;;20.33;16.33;;;;;;;;4968839;28;48456;-80
2021/12/19 09:32:35;;;;;;;;;21.50;14.75;;;;;;;;4971635;28;47730;-80
2021/12/19 09:35:00;;;;;;;;;27.00;17.67;;;;;;;;4975112;28;45618;-80
2021/12/19 09:37:27;;;;;;;;;19.67;17.00;;;;;;;;4971645;28;45383;-80
2021/12/19 09:39:52;;;;;;;;;22.50;17.50;;;;;;;;4972458;28;45656;-80
2021/12/19 09:42:20;;;;;;;;;21.33;19.00;;;;;;;;4967317;28;46229;-81
2021/12/19 09:44:45;;;;;;;;;20.25;17.50;;;;;;;;4973248;28;45481;-80
2021/12/19 09:47:11;;;;;;;;;25.00;17.25;;;;;;;;4973617;28;46356;-81
2021/12/19 09:49:36;;;;;;;;;24.67;20.67;;;;;;;;4971751;28;45462;-80
2021/12/19 09:52:05;;;;;;;;;26.00;17.00;;;;;;;;4973235;28;45536;-80
2021/12/19 09:54:30;;;;;;;;;22.50;17.50;;;;;;;;4966410;28;46026;-80
2021/12/19 09:56:55;;;;;;;;;23.00;16.00;;;;;;;;4970454;28;45750;-80
2021/12/19 09:59:21;;;;;;;;;19.00;15.33;;;;;;;;4974971;28;45577;-80
2021/12/19 10:01:48;;;;;;;;;20.50;14.25;;;;;;;;4974363;28;46040;-81
2021/12/19 10:04:29;;;;;;;;;19.25;13.50;;;;;;;;4970173;27;45384;-81
2021/12/19 10:07:14;;;;;;;;;17.50;16.00;;;;;;;;4966830;28;45460;-80
2021/12/19 10:09:55;;;;;;;;;18.00;15.50;;;;;;;;4966723;28;45495;-81
2021/12/19 10:12:38;;;;;;;;;22.00;15.75;;;;;;;;4963151;28;46581;-80
2021/12/19 10:15:11;;;;;;;;;22.50;20.00;;;;;;;;5003087;27;46420;-81
2021/12/19 10:17:37;;;;;;;;;19.25;18.50;;;;;;;;4954572;28;45377;-85
2021/12/19 10:20:03;;;;;;;;;19.00;15.50;;;;;;;;4959045;28;45657;-85
2021/12/19 10:22:33;;;;;;;;;24.75;18.75;;;;;;;;4961525;28;47039;-86
2021/12/19 10:25:10;;;;;;;;;15.50;15.00;;;;;;;;4962845;28;46048;-85
2021/12/19 10:27:43;;;;;;;;;21.00;17.00;;;;;;;;4965330;28;45473;-80
2021/12/19 10:30:17;;;;;;;;;15.75;15.50;;;;;;;;4954430;28;45414;-82
2021/12/19 10:32:55;;;;;;;;;20.00;15.25;;;;;;;;4966181;28;45570;-85
2021/12/19 10:35:27;;;;;;;;;19.50;14.50;;;;;;;;4952840;28;45408;-84
2021/12/19 10:37:53;;;;;;;;;22.25;14.00;;;;;;;;4967403;28;45531;-85
2021/12/19 10:40:18;;;;;;;;;16.50;14.75;;;;;;;;4965473;28;45463;-84
2021/12/19 10:42:45;;;;;;;;;13.00;12.50;;;;;;;;4964385;28;45871;-84
2021/12/19 10:48:11;;;;;;;;;20.75;17.00;;;;;;;;4998570;28;45590;-82
2021/12/19 10:50:56;;;;;;;;;25.25;18.50;;;;;;;;4966154;28;45509;-84
2021/12/19 10:53:26;;;;;;;;;20.00;16.75;;;;;;;;4962375;28;46090;-84
2021/12/19 10:55:52;;;;;;;;;29.50;18.75;;;;;;;;4961552;28;46243;-85
2021/12/19 10:58:18;;;;;;;;;23.00;17.25;;;;;;;;4960479;28;45437;-84
2021/12/19 11:00:53;;;;;;;;;21.75;21.00;;;;;;;;4961646;28;46045;-84
2021/12/19 11:03:32;;;;;;;;;23.75;20.00;;;;;;;;4964998;28;45828;-85
2021/12/19 11:05:57;;;;;;;;;18.75;18.50;;;;;;;;4959780;28;45992;-84
2021/12/19 11:08:28;;;;;;;;;30.00;23.67;;;;;;;;4962842;28;45501;-86
2021/12/19 11:10:53;;;;;;;;;27.25;25.00;;;;;;;;4967947;28;45749;-85
2021/12/19 11:13:19;;;;;;;;;34.00;23.00;;;;;;;;4966106;28;46111;-87
2021/12/19 11:15:44;;;;;;;;;29.67;26.67;;;;;;;;4966016;28;45901;-86
2021/12/19 11:18:09;;;;;;;;;29.50;24.50;;;;;;;;4963318;28;45483;-86
2021/12/19 11:20:34;;;;;;;;;32.00;24.00;;;;;;;;4958652;28;45516;-85
2021/12/19 11:23:00;;;;;;;;;31.00;24.67;;;;;;;;4961852;28;45653;-87
2021/12/19 11:25:26;;;;;;;;;27.25;21.00;;;;;;;;4962275;28;45900;-87
2021/12/19 11:27:51;;;;;;;;;37.75;28.00;;;;;;;;4963965;28;45585;-86
2021/12/19 11:30:18;;;;;;;;;29.25;25.00;;;;;;;;4963598;28;45368;-87
2021/12/19 11:32:51;;;;;;;;;31.25;22.50;;;;;;;;4959059;28;45654;-86
2021/12/19 11:35:18;;;;;;;;;25.75;20.75;;;;;;;;4963363;28;46023;-86
2021/12/19 11:37:45;;;;;;;;;24.75;23.00;;;;;;;;4960281;28;45507;-86
2021/12/19 11:40:16;;;;;;;;;26.25;22.00;;;;;;;;4962540;28;45700;-85
2021/12/19 11:42:42;;;;;;;;;24.25;17.75;;;;;;;;4965532;28;48154;-85
2021/12/19 11:48:14;;;;;;;;;24.50;22.25;;;;;;;;4963231;28;45565;-84
2021/12/19 11:50:50;;;;;;;;;26.00;20.75;;;;;;;;4965345;28;45418;-83
2021/12/19 11:53:15;;;;;;;;;27.75;21.75;;;;;;;;4964707;28;46470;-83
2021/12/19 11:55:41;;;;;;;;;30.33;28.33;;;;;;;;4969335;28;45763;-83
2021/12/19 11:58:07;;;;;;;;;29.00;20.25;;;;;;;;4965994;28;45765;-83
2021/12/19 12:00:34;;;;;;;;;24.50;22.25;;;;;;;;4965588;28;45521;-83
2021/12/19 12:03:25;;;;;;;;;30.50;27.25;;;;;;;;4968802;28;45837;-84
2021/12/19 12:05:54;;;;;;;;;36.25;25.00;;;;;;;;4964041;28;45469;-89
2021/12/19 12:08:19;;;;;;;;;34.00;27.50;;;;;;;;4964044;28;45915;-87
2021/12/19 12:10:47;;;;;;;;;40.75;30.00;;;;;;;;4968641;28;45637;-89
2021/12/19 12:13:22;;;;;;;;;32.00;26.50;;;;;;;;4965382;28;46109;-82
2021/12/19 12:15:53;;;;;;;;;29.75;25.25;;;;;;;;4965593;28;45602;-80
2021/12/19 12:18:38;;;;;;;;;41.75;29.25;;;;;;;;4965793;28;45378;-79
2021/12/19 12:21:24;;;;;;;;;32.75;26.00;;;;;;;;4966096;28;45664;-79
2021/12/19 12:23:51;;;;;;;;;30.25;27.50;;;;;;;;4966860;28;47457;-78
2021/12/19 12:26:28;;;;;;;;;28.75;27.25;;;;;;;;4966909;28;45450;-78
2021/12/19 12:28:54;;;;;;;;;29.00;25.75;;;;;;;;4967745;28;45630;-79
2021/12/19 12:31:20;;;;;;;;;31.00;28.00;;;;;;;;4957318;28;45684;-79
2021/12/19 12:33:45;;;;;;;;;31.00;26.50;;;;;;;;4963669;28;46936;-78
2021/12/19 12:36:10;;;;;;;;;30.33;24.00;;;;;;;;4959355;28;45652;-79
2021/12/19 12:38:35;;;;;;;;;36.00;26.67;;;;;;;;4971600;28;45456;-79
2021/12/19 12:41:07;;;;;;;;;34.75;26.75;;;;;;;;4956015;28;45503;-78
2021/12/19 12:43:33;;;;;;;;;28.75;25.25;;;;;;;;4968184;28;45605;-79
2021/12/19 12:46:08;;;;;;;;;39.25;32.00;;;;;;;;4959290;28;45581;-78
2021/12/19 12:48:52;;;;;;;;;34.50;30.75;;;;;;;;4958319;28;45458;-79
2021/12/19 12:51:24;;;;;;;;;37.25;31.75;;;;;;;;4960169;28;45685;-78
2021/12/19 12:53:50;;;;;;;;;36.75;29.50;;;;;;;;4967496;28;46103;-79
2021/12/19 12:56:18;;;;;;;;;32.75;27.50;;;;;;;;4952488;28;45481;-78
2021/12/19 12:58:45;;;;;;;;;33.75;25.00;;;;;;;;4956666;28;45369;-79
2021/12/19 13:01:22;;;;;;;;;27.50;24.75;;;;;;;;4956799;28;45414;-79
2021/12/19 13:03:53;;;;;;;;;34.75;27.25;;;;;;;;4961373;28;45514;-79
2021/12/19 13:06:37;;;;;;;;;36.50;26.25;;;;;;;;4967539;28;45982;-79
2021/12/19 13:09:13;;;;;;;;;26.50;22.50;;;;;;;;4995374;27;45904;-77
2021/12/19 13:11:38;;;;;;;;;28.00;21.75;;;;;;;;5001246;28;45735;-78
2021/12/19 13:14:15;;;;;;;;;27.33;21.00;;;;;;;;4962953;28;47101;-77
2021/12/19 13:16:54;;;;;;;;;31.75;26.00;;;;;;;;4960086;28;45935;-78
2021/12/19 13:19:32;;;;;;;;;28.50;25.50;;;;;;;;4957563;28;45561;-77
2021/12/19 13:21:58;;;;;;;;;27.75;20.00;;;;;;;;4957629;28;45673;-78
2021/12/19 13:24:24;;;;;;;;;26.25;20.25;;;;;;;;4963517;28;45592;-78
2021/12/19 13:27:02;;;;;;;;;25.50;21.25;;;;;;;;4953695;28;46192;-78
2021/12/19 13:29:27;;;;;;;;;29.25;22.75;;;;;;;;4953605;28;45780;-78
2021/12/19 13:31:52;;;;;;;;;28.67;21.00;;;;;;;;4955111;28;45339;-79
2021/12/19 13:34:17;;;;;;;;;30.33;26.33;;;;;;;;4968196;28;47068;-74
2021/12/19 13:36:42;;;;;;;;;31.33;25.33;;;;;;;;4992643;28;45597;-71
2021/12/19 13:39:17;;;;;;;;;33.00;26.00;;;;;;;;4962066;28;45395;-69
2021/12/19 13:41:43;;;;;;;;;23.25;21.00;;;;;;;;4972972;28;45552;-77
2021/12/19 13:44:08;;;;;;;;;32.00;26.00;;;;;;;;4971687;28;45878;-78
2021/12/19 13:46:33;;;;;;;;;25.25;22.50;;;;;;;;4971608;28;45516;-78
2021/12/19 13:48:59;;;;;;;;;24.50;21.50;;;;;;;;4971801;28;45582;-80
2021/12/19 13:51:26;;;;;;;;;22.25;20.00;;;;;;;;4964912;28;48348;-81
2021/12/19 13:53:53;;;;;;;;;24.75;19.25;;;;;;;;4974383;28;46138;-80
2021/12/19 13:56:19;;;;;;;;;31.25;23.25;;;;;;;;4951095;28;45840;-79
2021/12/19 13:58:46;;;;;;;;;31.50;20.75;;;;;;;;4956135;28;45367;-78
2021/12/19 14:01:19;;;;;;;;;26.75;24.75;;;;;;;;4960264;28;45807;-79
2021/12/19 14:03:44;;;;;;;;;27.50;22.00;;;;;;;;4960944;28;47235;-80
2021/12/19 14:06:10;;;;;;;;;34.33;25.00;;;;;;;;4966446;28;45530;-80
2021/12/19 14:08:36;;;;;;;;;27.50;21.00;;;;;;;;5037115;27;45541;-78
2021/12/19 14:11:04;;;;;;;;;26.75;23.00;;;;;;;;4985089;28;45656;-80
2021/12/19 14:13:33;;;;;;;;;26.25;20.75;;;;;;;;4955581;28;45578;-79
2021/12/19 14:15:58;;;;;;;;;27.50;22.50;;;;;;;;4961648;28;45989;-80
2021/12/19 14:18:24;;;;;;;;;23.75;21.00;;;;;;;;4964051;28;45374;-80
2021/12/19 14:20:49;;;;;;;;;21.00;18.50;;;;;;;;4964375;28;49433;-79
2021/12/19 14:23:18;;;;;;;;;24.00;21.67;;;;;;;;4968550;28;45557;-77
2021/12/19 14:25:43;;;;;;;;;18.25;17.50;;;;;;;;4966626;28;45404;-80
2021/12/19 14:28:18;;;;;;;;;18.00;15.33;;;;;;;;4964329;28;45664;-78
2021/12/19 14:30:54;;;;;;;;;20.75;16.75;;;;;;;;4956391;28;45506;-80
2021/12/19 14:33:33;;;;;;;;;11.75;11.00;;;;;;;;4957082;28;45754;-80
2021/12/19 14:35:59;;;;;;;;;14.25;12.75;;;;;;;;4993961;28;45884;-79
2021/12/19 14:38:24;;;;;;;;;26.25;18.25;;;;;;;;4969006;28;45516;-81
2021/12/19 14:40:49;;;;;;;;;22.33;16.00;;;;;;;;4968723;28;45508;-80
2021/12/19 14:43:18;;;;;;;;;17.33;14.00;;;;;;;;4966131;28;45747;-80
2021/12/19 14:45:46;;;;;;;;;23.00;14.25;;;;;;;;4958296;28;45896;-78
2021/12/19 14:48:12;;;;;;;;;27.00;17.75;;;;;;;;4954454;28;45890;-78
2021/12/19 14:50:39;;;;;;;;;24.75;15.75;;;;;;;;4954325;28;45692;-78
2021/12/19 14:53:04;;;;;;;;;23.25;18.50;;;;;;;;4952754;28;45736;-78
2021/12/19 14:55:30;;;;;;;;;26.00;17.00;;;;;;;;4954329;28;46238;-78
2021/12/19 14:57:56;;;;;;;;;27.50;22.00;;;;;;;;4956989;28;45547;-78
2021/12/19 15:00:21;;;;;;;;;28.25;20.50;;;;;;;;5015471;27;46119;-80
2021/12/19 15:02:46;;;;;;;;;24.50;21.50;;;;;;;;5032127;27;46584;-79
2021/12/19 15:05:12;;;;;;;;;26.50;22.25;;;;;;;;4978391;28;45618;-78
2021/12/19 15:07:42;;;;;;;;;26.67;24.33;;;;;;;;4978182;28;45417;-79
2021/12/19 15:10:08;;;;;;;;;24.25;18.50;;;;;;;;4961574;28;45689;-78
2021/12/19 15:12:33;;;;;;;;;28.00;18.75;;;;;;;;4993648;28;47314;-79
2021/12/19 15:14:59;;;;;;;;;16.67;15.67;;;;;;;;4981576;28;45367;-79
2021/12/19 15:17:24;;;;;;;;;13.25;11.00;;;;;;;;4975496;28;50555;-79
2021/12/19 15:19:50;;;;;;;;;14.33;11.33;;;;;;;;4984717;28;45570;-78
2021/12/19 15:22:15;;;;;;;;;14.67;11.00;;;;;;;;4962761;28;45612;-78
2021/12/19 15:24:40;;;;;;;;;18.33;11.00;;;;;;;;4975843;28;46029;-78
2021/12/19 15:27:05;;;;;;;;;13.67;12.00;;;;;;;;4980207;28;45576;-78
2021/12/19 15:29:31;;;;;;;;;19.33;14.67;;;;;;;;4965018;28;45431;-79
2021/12/19 15:31:56;;;;;;;;;14.67;12.00;;;;;;;;4994863;28;46072;-78